createdAt,value
2023-03-26T00:01:30.055Z,-0.86
2023-03-26T00:03:57.954Z,-0.40
2023-03-26T00:06:30.876Z,-0.10
2023-03-26T00:08:58.488Z,-0.62
2023-03-26T00:11:28.651Z,-1.21
2023-03-26T00:13:58.049Z,-0.95
2023-03-26T00:16:28.041Z,-0.60
2023-03-26T00:18:55.206Z,-1.42
2023-03-26T00:21:28.115Z,-0.60
2023-03-26T00:24:04.533Z,0.04
2023-03-26T00:26:33.613Z,-0.59
2023-03-26T00:29:01.763Z,-1.27
2023-03-26T00:31:28.560Z,-0.59
2023-03-26T00:33:55.872Z,-0.35
2023-03-26T00:36:25.885Z,-0.44
2023-03-26T00:38:53.976Z,-0.67
2023-03-26T00:41:25.565Z,-0.77
2023-03-26T00:43:58.835Z,-0.52
2023-03-26T00:46:27.601Z,-0.35
2023-03-26T00:48:54.527Z,-0.87
2023-03-26T00:51:21.863Z,-1.30
2023-03-26T00:53:50.014Z,-0.84
2023-03-26T00:56:17.853Z,-1.01
2023-03-26T00:58:46.191Z,-0.80
2023-03-26T01:01:16.469Z,-1.10
2023-03-26T01:04:00.823Z,0.28
2023-03-26T01:06:36.014Z,-0.76
2023-03-26T01:09:11.605Z,-0.44
2023-03-26T01:11:38.289Z,0.93
2023-03-26T01:14:10.043Z,0.38
2023-03-26T01:16:45.176Z,-0.94
2023-03-26T01:19:31.044Z,-0.57
2023-03-26T01:21:59.106Z,-0.22
2023-03-26T01:24:26.497Z,0.18
2023-03-26T01:27:05.277Z,-0.81
2023-03-26T01:29:46.045Z,-1.10
2023-03-26T01:32:51.815Z,-0.36
2023-03-26T01:35:49.645Z,1.15
2023-03-26T01:38:16.366Z,-0.96
2023-03-26T01:41:03.442Z,0.95
2023-03-26T01:43:54.184Z,-1.14
2023-03-26T01:46:23.870Z,-0.63
2023-03-26T01:48:51.355Z,-0.60
2023-03-26T01:51:33.252Z,-1.13
2023-03-26T01:54:04.221Z,0.60
2023-03-26T01:56:52.346Z,-0.12
2023-03-26T01:59:22.148Z,-0.19
2023-03-26T02:02:05.717Z,-0.40
2023-03-26T02:04:56.500Z,-1.07
2023-03-26T02:07:34.634Z,-0.20
2023-03-26T02:10:10.420Z,-0.76
2023-03-26T02:12:41.367Z,-0.37
2023-03-26T02:15:08.851Z,-0.28
2023-03-26T02:17:36.236Z,-0.70
2023-03-26T02:20:10.066Z,-0.66
2023-03-26T02:22:41.086Z,-0.39
2023-03-26T02:25:12.167Z,-0.30
2023-03-26T02:27:39.590Z,-0.75
2023-03-26T02:30:16.449Z,-0.42
2023-03-26T02:32:45.783Z,-0.91
2023-03-26T02:35:14.149Z,-0.72
2023-03-26T02:37:42.472Z,-1.18
2023-03-26T02:40:16.131Z,0.02
2023-03-26T02:42:45.676Z,0.06
2023-03-26T02:45:12.677Z,0.58
2023-03-26T02:48:06.103Z,1.15
2023-03-26T02:50:54.819Z,0.91
2023-03-26T02:53:53.719Z,-0.48
2023-03-26T02:56:39.065Z,0.79
2023-03-26T02:59:26.269Z,0.95
2023-03-26T03:02:16.816Z,0.00
2023-03-26T03:04:44.541Z,-0.39
2023-03-26T03:07:14.582Z,-0.70
2023-03-26T03:09:41.616Z,-0.13
2023-03-26T03:12:46.110Z,0.20
2023-03-26T03:15:13.660Z,-0.04
2023-03-26T03:17:41.547Z,-0.21
2023-03-26T03:20:12.118Z,0.06
2023-03-26T03:22:40.762Z,-0.82
2023-03-26T03:25:14.761Z,1.51
2023-03-26T03:27:43.130Z,1.83
2023-03-26T03:30:14.900Z,-0.05
2023-03-26T03:32:47.735Z,-0.67
2023-03-26T03:35:19.199Z,0.38
2023-03-26T03:37:49.517Z,0.31
2023-03-26T03:40:16.742Z,-0.90
2023-03-26T03:42:45.043Z,1.17
2023-03-26T03:45:14.012Z,-0.04
2023-03-26T03:47:44.309Z,1.26
2023-03-26T03:50:12.380Z,0.44
2023-03-26T03:52:48.162Z,-0.69
2023-03-26T03:55:17.428Z,-0.38
2023-03-26T03:57:51.565Z,-0.44
2023-03-26T04:00:22.010Z,0.35
2023-03-26T04:03:06.266Z,-0.68
2023-03-26T04:05:33.755Z,-0.15
2023-03-26T04:08:00.713Z,-1.35
2023-03-26T04:10:51.793Z,-1.22
2023-03-26T04:13:30.760Z,-0.44
2023-03-26T04:16:30.505Z,-2.71
2023-03-26T04:18:59.271Z,-1.96
2023-03-26T04:21:30.444Z,-2.28
2023-03-26T04:23:57.475Z,-1.43
2023-03-26T04:26:44.702Z,-0.81
2023-03-26T04:29:18.266Z,-0.44
2023-03-26T04:31:47.183Z,-0.24
2023-03-26T04:34:25.676Z,-0.40
2023-03-26T04:37:03.282Z,-0.70
2023-03-26T04:39:34.227Z,-1.53
2023-03-26T04:42:30.528Z,-1.39
2023-03-26T04:45:22.560Z,-1.58
2023-03-26T04:47:55.505Z,-1.46
2023-03-26T04:50:22.583Z,-1.55
2023-03-26T04:52:49.929Z,-1.25
2023-03-26T04:55:53.518Z,-0.92
2023-03-26T04:58:39.957Z,-1.39
2023-03-26T05:01:10.522Z,-1.34
2023-03-26T05:03:41.999Z,-2.06
2023-03-26T05:06:13.929Z,-1.72
2023-03-26T05:08:41.930Z,-1.48
2023-03-26T05:11:13.264Z,-0.88
2023-03-26T05:13:42.815Z,-1.51
2023-03-26T05:16:12.146Z,-1.12
2023-03-26T05:18:42.078Z,-1.07
2023-03-26T05:21:09.488Z,-0.55
2023-03-26T05:23:38.009Z,-1.22
2023-03-26T05:26:19.534Z,-1.06
2023-03-26T05:28:46.332Z,-1.69
2023-03-26T05:31:33.605Z,-0.67
2023-03-26T05:34:01.912Z,0.45
2023-03-26T05:36:29.216Z,-1.08
2023-03-26T05:39:19.214Z,1.05
2023-03-26T05:42:04.481Z,-0.21
2023-03-26T05:44:49.273Z,-0.53
2023-03-26T05:47:22.856Z,-0.23
2023-03-26T05:49:49.667Z,-0.71
2023-03-26T05:52:19.050Z,0.47
2023-03-26T05:55:16.184Z,0.06
2023-03-26T05:58:01.854Z,-0.20
2023-03-26T06:00:48.640Z,-0.69
2023-03-26T06:03:23.185Z,-0.66
2023-03-26T06:06:20.493Z,-1.14
2023-03-26T06:09:00.885Z,-1.39
2023-03-26T06:11:31.658Z,-0.03
2023-03-26T06:13:59.572Z,-0.30
2023-03-26T06:16:27.679Z,-1.43
2023-03-26T06:19:04.349Z,-0.71
2023-03-26T06:21:50.157Z,0.20
2023-03-26T06:24:22.890Z,0.39
2023-03-26T06:27:04.439Z,-0.33
2023-03-26T06:29:49.122Z,-0.91
2023-03-26T06:32:26.274Z,-0.71
2023-03-26T06:35:11.924Z,-0.29
2023-03-26T06:37:38.780Z,1.46
2023-03-26T06:40:07.351Z,1.08
2023-03-26T06:43:10.206Z,0.26
2023-03-26T06:45:51.798Z,0.08
2023-03-26T06:48:37.347Z,-0.17
2023-03-26T06:51:22.837Z,0.18
2023-03-26T06:54:07.859Z,0.56
2023-03-26T06:56:55.626Z,0.22
2023-03-26T07:00:01.024Z,1.43
2023-03-26T07:02:46.976Z,-0.21
2023-03-26T07:05:32.555Z,0.36
2023-03-26T07:08:19.724Z,1.09
2023-03-26T07:11:06.890Z,1.48
2023-03-26T07:13:52.592Z,1.65
2023-03-26T07:16:42.614Z,1.23
2023-03-26T07:19:27.970Z,2.83
2023-03-26T07:21:55.166Z,2.53
2023-03-26T07:24:48.367Z,2.25
2023-03-26T07:27:36.934Z,2.71
2023-03-26T07:30:20.503Z,3.01
2023-03-26T07:33:28.036Z,2.73
2023-03-26T07:36:34.261Z,2.37
2023-03-26T07:39:35.952Z,2.63
2023-03-26T07:42:39.868Z,1.27
2023-03-26T07:45:45.035Z,2.33
2023-03-26T07:48:25.603Z,1.89
2023-03-26T07:51:08.001Z,2.77
2023-03-26T07:54:13.589Z,1.03
2023-03-26T07:57:06.748Z,2.35
2023-03-26T08:00:12.217Z,1.37
2023-03-26T08:03:01.674Z,1.59
2023-03-26T08:06:14.638Z,1.92
2023-03-26T08:09:02.738Z,1.51
2023-03-26T08:12:03.797Z,1.27
2023-03-26T08:14:49.227Z,-0.29
2023-03-26T08:17:30.965Z,1.36
2023-03-26T08:20:23.146Z,2.43
2023-03-26T08:23:09.410Z,2.12
2023-03-26T08:25:55.043Z,1.16
2023-03-26T08:28:58.883Z,0.42
2023-03-26T08:31:39.066Z,0.51
2023-03-26T08:34:06.498Z,1.10
2023-03-26T08:36:33.333Z,0.76
2023-03-26T08:39:00.365Z,1.58
2023-03-26T08:41:42.385Z,2.59
2023-03-26T08:44:09.753Z,1.26
2023-03-26T08:46:39.154Z,0.25
2023-03-26T08:49:37.935Z,1.29
2023-03-26T08:52:19.882Z,1.54
2023-03-26T08:55:27.585Z,2.21
2023-03-26T08:58:40.352Z,2.80
2023-03-26T09:01:25.679Z,3.42
2023-03-26T09:04:34.097Z,0.76
2023-03-26T09:07:16.321Z,2.20
2023-03-26T09:09:48.764Z,3.35
2023-03-26T09:12:44.484Z,1.72
2023-03-26T09:15:29.668Z,1.90
2023-03-26T09:17:58.028Z,2.71
2023-03-26T09:20:49.755Z,2.12
2023-03-26T09:23:25.364Z,3.05
2023-03-26T09:26:22.862Z,1.66
2023-03-26T09:29:07.789Z,2.19
2023-03-26T09:31:51.462Z,2.13
2023-03-26T09:34:49.990Z,0.13
2023-03-26T09:37:36.484Z,1.70
2023-03-26T09:41:06.613Z,1.10
2023-03-26T09:43:33.561Z,1.36
2023-03-26T09:46:23.112Z,2.51
2023-03-26T09:49:11.064Z,1.65
2023-03-26T09:51:44.033Z,0.72
2023-03-26T09:54:39.305Z,0.12
2023-03-26T09:57:09.436Z,0.80
2023-03-26T09:59:45.437Z,0.56
2023-03-26T10:02:46.323Z,1.01
2023-03-26T10:05:17.458Z,-0.05
2023-03-26T10:08:15.331Z,0.23
2023-03-26T10:11:03.812Z,-0.18
2023-03-26T10:13:51.580Z,0.67
2023-03-26T10:16:35.244Z,1.57
2023-03-26T10:19:20.316Z,0.89
2023-03-26T10:22:23.950Z,2.47
2023-03-26T10:25:15.090Z,0.17
2023-03-26T10:27:48.904Z,0.29
2023-03-26T10:30:19.263Z,1.27
2023-03-26T10:32:52.133Z,1.70
2023-03-26T10:35:26.555Z,1.00
2023-03-26T10:38:12.036Z,0.83
2023-03-26T10:41:09.832Z,0.86
2023-03-26T10:44:17.242Z,1.37
2023-03-26T10:46:49.092Z,1.20
2023-03-26T10:49:30.751Z,2.03
2023-03-26T10:52:01.031Z,1.75
2023-03-26T10:54:56.349Z,1.77
2023-03-26T10:57:32.240Z,1.60
2023-03-26T11:00:14.062Z,1.94
2023-03-26T11:02:51.975Z,-0.21
2023-03-26T11:05:53.042Z,1.76
2023-03-26T11:08:34.652Z,1.25
2023-03-26T11:11:11.088Z,1.14
2023-03-26T11:13:55.650Z,1.65
2023-03-26T11:16:56.190Z,2.02
2023-03-26T11:19:41.409Z,2.78
2023-03-26T11:22:19.990Z,1.60
2023-03-26T11:24:46.617Z,2.15
2023-03-26T11:27:47.177Z,1.55
2023-03-26T11:30:35.609Z,3.37
2023-03-26T11:33:07.781Z,2.91
2023-03-26T11:35:44.004Z,2.81
2023-03-26T11:38:22.040Z,3.00
2023-03-26T11:40:52.588Z,2.38
2023-03-26T11:43:36.980Z,2.73
2023-03-26T11:46:10.285Z,3.20
2023-03-26T11:48:42.575Z,2.18
2023-03-26T11:51:18.964Z,1.68
2023-03-26T11:53:48.784Z,1.72
2023-03-26T11:56:31.086Z,2.11
2023-03-26T11:59:08.628Z,2.34
2023-03-26T12:01:58.000Z,1.86
2023-03-26T12:04:37.898Z,2.78
2023-03-26T12:07:07.463Z,2.32
2023-03-26T12:09:34.880Z,2.82
2023-03-26T12:12:04.648Z,2.13
2023-03-26T12:14:35.529Z,3.59
2023-03-26T12:17:31.555Z,3.61
2023-03-26T12:19:59.658Z,4.24
2023-03-26T12:22:38.193Z,4.51
2023-03-26T12:25:21.915Z,2.80
2023-03-26T12:28:13.927Z,3.02
2023-03-26T12:30:45.077Z,3.74
2023-03-26T12:33:30.122Z,2.86
2023-03-26T12:36:00.633Z,2.52
2023-03-26T12:38:34.282Z,1.78
2023-03-26T12:42:25.929Z,3.18
2023-03-26T12:44:50.126Z,2.41
2023-03-26T12:47:55.383Z,2.06
2023-03-26T12:50:14.547Z,1.04
2023-03-26T12:53:02.583Z,2.01
2023-03-26T12:55:51.184Z,0.96
2023-03-26T12:58:39.584Z,1.49
2023-03-26T13:01:25.017Z,0.77
2023-03-26T13:04:14.439Z,1.70
2023-03-26T13:06:59.997Z,1.74
2023-03-26T13:09:56.049Z,0.17
2023-03-26T13:12:55.285Z,1.10
2023-03-26T13:15:22.065Z,1.00
2023-03-26T13:17:51.993Z,1.51
2023-03-26T13:20:40.243Z,2.37
2023-03-26T13:23:26.801Z,1.92
2023-03-26T13:26:29.130Z,2.49
2023-03-26T13:28:56.237Z,1.65
2023-03-26T13:31:54.743Z,2.02
2023-03-26T13:34:27.794Z,1.25
2023-03-26T13:37:36.477Z,1.16
2023-03-26T13:40:15.303Z,0.78
2023-03-26T13:43:07.369Z,1.80
2023-03-26T13:45:42.531Z,1.54
2023-03-26T13:48:19.290Z,2.34
2023-03-26T13:50:57.223Z,1.42
2023-03-26T13:53:37.241Z,1.43
2023-03-26T13:56:06.331Z,1.38
2023-03-26T13:58:39.617Z,1.99
2023-03-26T14:01:10.088Z,2.11
2023-03-26T14:03:58.685Z,1.92
2023-03-26T14:06:42.064Z,1.65
2023-03-26T14:09:15.956Z,1.79
2023-03-26T14:11:57.939Z,1.96
2023-03-26T14:14:49.163Z,2.52
2023-03-26T14:17:41.265Z,2.12
2023-03-26T14:20:32.739Z,2.22
2023-03-26T14:23:21.036Z,2.58
2023-03-26T14:26:25.258Z,2.93
2023-03-26T14:29:29.554Z,2.01
2023-03-26T14:32:14.696Z,2.58
2023-03-26T14:35:12.177Z,1.83
2023-03-26T14:38:08.064Z,3.55
2023-03-26T14:40:58.102Z,3.64
2023-03-26T14:44:16.032Z,2.53
2023-03-26T14:47:04.885Z,3.16
2023-03-26T14:50:20.613Z,3.50
2023-03-26T14:52:51.822Z,2.97
2023-03-26T14:55:29.512Z,2.38
2023-03-26T14:58:22.164Z,1.83
2023-03-26T15:01:20.941Z,1.11
2023-03-26T15:04:29.755Z,2.79
2023-03-26T15:07:18.863Z,2.47
2023-03-26T15:09:51.782Z,1.91
2023-03-26T15:12:32.848Z,1.92
2023-03-26T15:15:02.345Z,1.91
2023-03-26T15:18:00.227Z,2.46
2023-03-26T15:20:45.110Z,2.26
2023-03-26T15:23:14.673Z,2.63
2023-03-26T15:26:02.904Z,2.39
2023-03-26T15:28:54.508Z,1.31
2023-03-26T15:31:42.659Z,1.66
2023-03-26T15:34:40.064Z,2.10
2023-03-26T15:37:19.487Z,1.67
2023-03-26T15:39:59.690Z,1.19
2023-03-26T15:42:42.120Z,2.55
2023-03-26T15:45:37.236Z,1.34
2023-03-26T15:48:13.354Z,2.18
2023-03-26T15:50:56.264Z,1.69
2023-03-26T15:53:48.070Z,2.22
2023-03-26T15:56:17.848Z,1.18
2023-03-26T15:58:55.298Z,1.44
2023-03-26T16:01:36.481Z,1.29
2023-03-26T16:04:26.602Z,0.73
2023-03-26T16:07:14.378Z,0.58
2023-03-26T16:10:09.681Z,0.06
2023-03-26T16:12:46.795Z,-0.34
2023-03-26T16:15:23.091Z,-0.57
2023-03-26T16:18:10.284Z,-0.48
2023-03-26T16:20:51.388Z,-1.08
2023-03-26T16:23:30.473Z,-1.02
2023-03-26T16:25:59.248Z,0.18
2023-03-26T16:28:56.659Z,0.02
2023-03-26T16:31:38.151Z,-0.06
2023-03-26T16:34:07.941Z,-0.69
2023-03-26T16:36:37.830Z,0.40
2023-03-26T16:39:05.020Z,0.17
2023-03-26T16:41:34.819Z,0.14
2023-03-26T16:44:26.047Z,0.25
2023-03-26T16:47:14.562Z,0.73
2023-03-26T16:50:10.721Z,-0.94
2023-03-26T16:52:59.156Z,-0.51
2023-03-26T16:55:41.575Z,-0.32
2023-03-26T16:58:11.928Z,-0.75
2023-03-26T17:00:41.907Z,0.25
2023-03-26T17:03:17.102Z,-0.10
2023-03-26T17:05:56.667Z,0.28
2023-03-26T17:08:53.416Z,0.76
2023-03-26T17:11:23.341Z,0.73
2023-03-26T17:14:08.706Z,1.48
2023-03-26T17:16:46.128Z,0.52
2023-03-26T17:19:29.669Z,-0.70
2023-03-26T17:22:11.547Z,-0.13
2023-03-26T17:24:59.895Z,0.11
2023-03-26T17:28:27.674Z,0.39
2023-03-26T17:31:16.370Z,-0.89
2023-03-26T17:33:43.540Z,-0.95
2023-03-26T17:36:13.254Z,-1.67
2023-03-26T17:38:58.848Z,0.18
2023-03-26T17:42:13.561Z,-0.72
2023-03-26T17:44:49.077Z,-0.49
2023-03-26T17:47:23.756Z,-1.03
2023-03-26T17:49:58.308Z,-0.78
2023-03-26T17:52:41.823Z,-0.76
2023-03-26T17:55:14.363Z,-0.70
2023-03-26T17:57:44.415Z,-0.94
2023-03-26T18:00:28.724Z,-2.13
2023-03-26T18:03:12.842Z,-2.22
2023-03-26T18:05:40.493Z,-1.42
2023-03-26T18:08:40.050Z,-1.32
2023-03-26T18:11:09.800Z,-3.10
2023-03-26T18:13:58.543Z,-2.23
2023-03-26T18:16:28.469Z,-2.47
2023-03-26T18:19:00.151Z,-2.77
2023-03-26T18:21:37.945Z,-2.19
2023-03-26T18:24:07.753Z,-2.48
2023-03-26T18:26:52.797Z,-3.34
2023-03-26T18:29:26.348Z,-2.17
2023-03-26T18:32:00.731Z,-2.97
2023-03-26T18:34:31.822Z,-3.45
2023-03-26T18:37:17.830Z,-3.01
2023-03-26T18:39:59.178Z,-2.32
2023-03-26T18:42:28.502Z,-2.73
2023-03-26T18:45:00.036Z,-2.81
2023-03-26T18:47:30.555Z,-2.04
2023-03-26T18:49:58.706Z,-3.24
2023-03-26T18:52:31.852Z,-2.24
2023-03-26T18:54:59.602Z,-3.03
2023-03-26T18:57:28.920Z,-2.64
2023-03-26T19:00:09.929Z,-2.48
2023-03-26T19:02:39.601Z,-3.00
2023-03-26T19:05:08.220Z,-3.36
2023-03-26T19:07:36.006Z,-3.12
2023-03-26T19:10:03.278Z,-2.98
2023-03-26T19:12:36.634Z,-1.48
2023-03-26T19:15:03.887Z,-2.96
2023-03-26T19:17:34.704Z,-3.09
2023-03-26T19:20:01.901Z,-2.88
2023-03-26T19:22:30.665Z,-2.90
2023-03-26T19:25:02.099Z,-2.78
2023-03-26T19:27:29.530Z,-3.32
2023-03-26T19:29:57.442Z,-3.10
2023-03-26T19:32:33.044Z,-2.89
2023-03-26T19:35:02.057Z,-2.54
2023-03-26T19:37:30.726Z,-3.12
2023-03-26T19:40:06.401Z,-2.59
2023-03-26T19:42:42.845Z,-3.60
2023-03-26T19:45:23.298Z,-2.19
2023-03-26T19:48:03.495Z,-3.61
2023-03-26T19:50:34.470Z,-2.41
2023-03-26T19:53:16.009Z,-2.83
2023-03-26T19:55:55.616Z,-3.56
2023-03-26T19:58:24.313Z,-3.03
2023-03-26T20:00:51.034Z,-3.01
2023-03-26T20:03:24.445Z,-3.22
2023-03-26T20:05:51.947Z,-3.15
2023-03-26T20:08:19.957Z,-3.13
2023-03-26T20:10:46.873Z,-2.69
2023-03-26T20:13:17.355Z,-1.81
2023-03-26T20:16:23.451Z,-3.49
2023-03-26T20:18:50.847Z,-2.60
2023-03-26T20:21:18.541Z,-2.71
2023-03-26T20:23:45.303Z,-3.07
2023-03-26T20:26:14.119Z,-3.08
2023-03-26T20:28:47.856Z,-2.62
2023-03-26T20:31:21.988Z,-3.13
2023-03-26T20:33:50.782Z,-2.77
2023-03-26T20:36:33.802Z,-2.51
2023-03-26T20:39:08.420Z,-3.51
2023-03-26T20:41:39.663Z,-2.64
2023-03-26T20:44:13.921Z,-3.25
2023-03-26T20:46:43.140Z,-2.98
2023-03-26T20:49:11.191Z,-2.76
2023-03-26T20:51:39.500Z,-2.57
2023-03-26T20:54:09.725Z,-2.70
2023-03-26T20:56:37.780Z,-2.70
2023-03-26T20:59:10.972Z,-2.79
2023-03-26T21:01:38.872Z,-2.31
2023-03-26T21:04:06.907Z,-3.17
2023-03-26T21:06:33.765Z,-3.10
2023-03-26T21:09:00.994Z,-2.37
2023-03-26T21:11:52.098Z,-3.08
2023-03-26T21:14:41.910Z,-2.51
2023-03-26T21:17:20.680Z,-2.27
2023-03-26T21:19:48.204Z,-2.71
2023-03-26T21:22:33.542Z,-2.22
2023-03-26T21:25:15.348Z,-3.26
2023-03-26T21:28:00.955Z,-3.94
2023-03-26T21:30:28.361Z,-2.58
2023-03-26T21:32:56.163Z,-3.06
2023-03-26T21:35:23.430Z,-1.69
2023-03-26T21:37:51.063Z,-2.44
2023-03-26T21:40:19.089Z,-1.80
2023-03-26T21:42:51.074Z,-2.29
2023-03-26T21:45:19.388Z,-2.13
2023-03-26T21:47:46.657Z,-2.84
2023-03-26T21:50:17.294Z,-2.59
2023-03-26T21:52:48.501Z,-2.93
2023-03-26T21:55:18.656Z,-2.62
2023-03-26T21:57:51.646Z,-2.39
2023-03-26T22:00:19.318Z,-2.97
2023-03-26T22:03:03.573Z,-2.54
2023-03-26T22:05:49.114Z,-1.79
2023-03-26T22:08:38.871Z,-2.11
2023-03-26T22:11:07.217Z,-2.55
2023-03-26T22:13:38.717Z,-2.67
2023-03-26T22:16:07.284Z,-2.97
2023-03-26T22:18:35.342Z,-2.15
2023-03-26T22:21:02.190Z,-2.93
2023-03-26T22:23:36.009Z,-2.95
2023-03-26T22:26:04.392Z,-2.14
2023-03-26T22:28:31.584Z,-2.40
2023-03-26T22:30:59.223Z,-2.47
2023-03-26T22:33:26.830Z,-3.14
2023-03-26T22:35:55.910Z,-2.20
2023-03-26T22:38:23.085Z,-3.20
2023-03-26T22:40:58.005Z,-1.73
2023-03-26T22:43:24.967Z,-2.81
2023-03-26T22:45:54.257Z,-2.90
2023-03-26T22:48:23.468Z,-3.01
2023-03-26T22:51:05.727Z,-3.25
2023-03-26T22:53:32.568Z,-2.55
2023-03-26T22:56:00.242Z,-2.42
2023-03-26T22:58:28.217Z,-3.08
2023-03-26T23:01:08.383Z,-3.25
2023-03-26T23:03:36.880Z,-2.52
2023-03-26T23:06:06.942Z,-3.20
2023-03-26T23:08:35.209Z,-2.93
2023-03-26T23:11:02.176Z,-3.49
2023-03-26T23:13:29.168Z,-2.23
2023-03-26T23:15:57.159Z,-3.19
2023-03-26T23:18:24.433Z,-2.98
2023-03-26T23:20:55.935Z,-2.91
2023-03-26T23:23:28.232Z,-2.80
2023-03-26T23:25:58.683Z,-2.63
2023-03-26T23:28:26.953Z,-2.26
2023-03-26T23:30:54.915Z,-2.20
2023-03-26T23:33:25.653Z,-2.58
2023-03-26T23:35:57.924Z,-2.24
2023-03-26T23:38:27.967Z,-2.27
2023-03-26T23:41:10.487Z,-2.79
2023-03-26T23:43:39.695Z,-2.20
2023-03-26T23:46:24.124Z,-2.77
2023-03-26T23:48:51.940Z,-3.15
2023-03-26T23:51:22.475Z,-2.89
2023-03-26T23:53:49.681Z,-2.32
2023-03-26T23:56:17.485Z,-2.77
2023-03-26T23:58:44.682Z,-2.56
